createdAt,value
2017-02-10T00:00:06.867Z,925.15
2017-02-10T00:00:35.020Z,925.19
2017-02-10T00:01:03.215Z,925.09
2017-02-10T00:01:31.465Z,925.09
2017-02-10T00:01:59.612Z,925.04
2017-02-10T00:02:27.678Z,925.03
2017-02-10T00:02:55.854Z,925.1
2017-02-10T00:03:24.100Z,925.05
2017-02-10T00:03:52.365Z,925.03
2017-02-10T00:04:20.546Z,925.08
2017-02-10T00:04:48.575Z,925.01
2017-02-10T00:05:59.757Z,925.02
2017-02-10T00:06:27.820Z,925.02
2017-02-10T00:06:55.927Z,925.01
2017-02-10T00:07:24.164Z,925.06
2017-02-10T00:07:52.218Z,925.03
2017-02-10T00:08:20.285Z,925.09
2017-02-10T00:08:48.456Z,925.06
2017-02-10T00:09:16.613Z,925.07
2017-02-10T00:09:44.698Z,925.06
2017-02-10T00:10:12.670Z,925.04
2017-02-10T00:10:40.702Z,925.05
2017-02-10T00:11:51.978Z,925.05
2017-02-10T00:12:20.040Z,925.11
2017-02-10T00:12:48.239Z,925.08
2017-02-10T00:13:16.394Z,925.07
2017-02-10T00:13:44.546Z,925
2017-02-10T00:14:12.713Z,925
2017-02-10T00:14:40.972Z,925.06
2017-02-10T00:15:08.944Z,924.99
2017-02-10T00:15:37.124Z,925
2017-02-10T00:16:05.388Z,924.94
2017-02-10T00:16:33.606Z,924.95
2017-02-10T00:17:44.702Z,924.94
2017-02-10T00:18:12.767Z,924.91
2017-02-10T00:18:40.966Z,924.97
2017-02-10T00:19:09.116Z,924.89
2017-02-10T00:19:37.268Z,924.92
2017-02-10T00:20:05.435Z,924.91
2017-02-10T00:20:33.694Z,924.9
2017-02-10T00:21:01.948Z,924.86
2017-02-10T00:21:29.945Z,924.92
2017-02-10T00:21:58.218Z,924.93
2017-02-10T00:22:26.344Z,924.96
2017-02-10T00:23:37.527Z,924.94
2017-02-10T00:24:05.499Z,924.95
2017-02-10T00:24:33.692Z,924.87
2017-02-10T00:25:01.848Z,924.99
2017-02-10T00:25:29.999Z,924.99
2017-02-10T00:25:58.247Z,924.92
2017-02-10T00:26:26.327Z,924.9
2017-02-10T00:26:54.482Z,924.9
2017-02-10T00:27:22.664Z,924.9
2017-02-10T00:27:50.749Z,924.92
2017-02-10T00:28:18.872Z,924.92
2017-02-10T00:29:30.144Z,924.87
2017-02-10T00:29:58.298Z,924.91
2017-02-10T00:30:26.402Z,924.88
2017-02-10T00:30:54.373Z,924.89
2017-02-10T00:31:22.340Z,924.88
2017-02-10T00:31:50.593Z,924.9
2017-02-10T00:32:18.676Z,924.89
2017-02-10T00:32:46.832Z,924.87
2017-02-10T00:33:14.909Z,924.88
2017-02-10T00:33:43.176Z,924.9
2017-02-10T00:34:11.213Z,924.89
2017-02-10T00:35:22.399Z,924.86
2017-02-10T00:35:50.556Z,924.84
2017-02-10T00:36:18.752Z,924.92
2017-02-10T00:36:46.993Z,924.88
2017-02-10T00:37:15.235Z,924.89
2017-02-10T00:37:43.400Z,924.86
2017-02-10T00:38:11.569Z,924.87
2017-02-10T00:38:39.822Z,924.85
2017-02-10T00:39:08.097Z,924.92
2017-02-10T00:39:36.183Z,924.9
2017-02-10T00:40:04.213Z,924.87
2017-02-10T00:41:15.119Z,924.85
2017-02-10T00:41:43.276Z,924.88
2017-02-10T00:42:11.399Z,924.91
2017-02-10T00:42:39.549Z,924.86
2017-02-10T00:43:07.794Z,924.79
2017-02-10T00:43:36.048Z,924.82
2017-02-10T00:44:04.313Z,924.79
2017-02-10T00:44:32.376Z,924.78
2017-02-10T00:45:00.642Z,924.77
2017-02-10T00:45:28.727Z,924.73
2017-02-10T00:45:56.943Z,924.71
2017-02-10T00:47:08.127Z,924.77
2017-02-10T00:47:36.286Z,924.75
2017-02-10T00:48:04.295Z,924.73
2017-02-10T00:48:32.445Z,924.75
2017-02-10T00:49:00.509Z,924.8
2017-02-10T00:49:28.670Z,924.82
2017-02-10T00:49:56.843Z,924.74
2017-02-10T00:50:24.993Z,924.79
2017-02-10T00:50:52.984Z,924.76
2017-02-10T00:51:21.084Z,924.74
2017-02-10T00:51:49.206Z,924.79
2017-02-10T00:53:00.486Z,924.77
2017-02-10T00:53:28.546Z,924.77
2017-02-10T00:53:56.555Z,924.71
2017-02-10T00:54:24.712Z,924.74
2017-02-10T00:54:52.775Z,924.81
2017-02-10T00:55:20.936Z,924.74
2017-02-10T00:55:49.203Z,924.72
2017-02-10T00:56:17.363Z,924.66
2017-02-10T00:56:45.548Z,924.73
2017-02-10T00:57:13.632Z,924.67
2017-02-10T00:57:41.664Z,924.72
2017-02-10T00:58:52.845Z,924.64
2017-02-10T00:59:21.000Z,924.82
2017-02-10T00:59:49.197Z,924.74
2017-02-10T01:00:17.256Z,924.71
2017-02-10T01:00:45.316Z,924.7
2017-02-10T01:01:13.567Z,924.75
2017-02-10T01:01:41.643Z,924.71
2017-02-10T01:02:09.803Z,924.76
2017-02-10T01:02:37.980Z,924.78
2017-02-10T01:03:06.158Z,924.83
2017-02-10T01:03:34.186Z,924.73
2017-02-10T01:04:45.279Z,924.77
2017-02-10T01:05:13.438Z,924.79
2017-02-10T01:05:41.540Z,924.81
2017-02-10T01:06:09.606Z,924.86
2017-02-10T01:06:37.848Z,924.78
2017-02-10T01:07:06.009Z,924.81
2017-02-10T01:07:34.271Z,924.82
2017-02-10T01:08:02.525Z,924.85
2017-02-10T01:08:30.700Z,924.86
2017-02-10T01:08:58.782Z,924.81
2017-02-10T01:09:26.820Z,924.83
2017-02-10T01:10:37.821Z,924.82
2017-02-10T01:11:05.986Z,924.86
2017-02-10T01:11:34.177Z,924.84
2017-02-10T01:12:02.331Z,924.87
2017-02-10T01:12:30.574Z,924.88
2017-02-10T01:12:58.739Z,924.93
2017-02-10T01:13:26.815Z,924.89
2017-02-10T01:13:55.068Z,924.89
2017-02-10T01:14:23.336Z,924.87
2017-02-10T01:14:51.516Z,924.98
2017-02-10T01:15:19.546Z,925.1
2017-02-10T01:16:30.733Z,925.02
2017-02-10T01:16:58.987Z,925
2017-02-10T01:17:26.996Z,924.93
2017-02-10T01:17:55.238Z,925
2017-02-10T01:18:23.391Z,925.07
2017-02-10T01:18:51.644Z,924.93
2017-02-10T01:19:19.810Z,924.95
2017-02-10T01:19:47.871Z,924.95
2017-02-10T01:20:16.048Z,925.03
2017-02-10T01:20:44.223Z,924.99
2017-02-10T01:21:12.349Z,925.01
2017-02-10T01:22:23.351Z,924.99
2017-02-10T01:22:51.597Z,925.03
2017-02-10T01:23:19.697Z,925
2017-02-10T01:23:47.666Z,925.02
2017-02-10T01:24:15.817Z,924.99
2017-02-10T01:24:44.073Z,925.05
2017-02-10T01:25:12.333Z,925.01
2017-02-10T01:25:40.485Z,925.07
2017-02-10T01:26:08.660Z,925.04
2017-02-10T01:26:36.930Z,925.11
2017-02-10T01:27:05.153Z,925.11
2017-02-10T01:28:16.267Z,925.09
2017-02-10T01:28:44.496Z,925.27
2017-02-10T01:29:12.597Z,925.16
2017-02-10T01:29:40.755Z,925.22
2017-02-10T01:30:08.906Z,925.39
2017-02-10T01:30:36.880Z,925.23
2017-02-10T01:31:05.145Z,925.25
2017-02-10T01:31:33.392Z,925.24
2017-02-10T01:32:01.569Z,925.25
2017-02-10T01:32:29.744Z,925.26
2017-02-10T01:32:57.961Z,925.3
2017-02-10T01:34:08.958Z,925.38
2017-02-10T01:34:36.934Z,925.58
2017-02-10T01:35:05.034Z,925.49
2017-02-10T01:35:33.004Z,925.37
2017-02-10T01:36:01.157Z,925.38
2017-02-10T01:36:29.325Z,925.6
2017-02-10T01:36:57.581Z,925.46
2017-02-10T01:37:25.642Z,925.45
2017-02-10T01:37:53.727Z,925.44
2017-02-10T01:38:21.907Z,925.51
2017-02-10T01:38:50.043Z,925.43
2017-02-10T01:40:01.138Z,925.52
2017-02-10T01:40:29.389Z,925.43
2017-02-10T01:40:57.400Z,925.42
2017-02-10T01:41:25.647Z,925.46
2017-02-10T01:41:53.705Z,925.42
2017-02-10T01:42:21.961Z,925.39
2017-02-10T01:42:50.134Z,925.38
2017-02-10T01:43:18.388Z,925.29
2017-02-10T01:43:46.565Z,925.36
2017-02-10T01:44:14.831Z,925.35
2017-02-10T01:44:42.863Z,925.34
2017-02-10T01:45:54.047Z,925.41
2017-02-10T01:46:22.204Z,925.38
2017-02-10T01:46:50.401Z,925.43
2017-02-10T01:47:18.462Z,925.48
2017-02-10T01:47:46.614Z,925.49
2017-02-10T01:48:14.867Z,925.46
2017-02-10T01:48:43.040Z,925.41
2017-02-10T01:49:11.190Z,925.45
2017-02-10T01:49:39.274Z,925.48
2017-02-10T01:50:07.457Z,925.54
2017-02-10T01:50:35.676Z,925.61
2017-02-10T01:51:46.865Z,925.53
2017-02-10T01:52:15.116Z,925.57
2017-02-10T01:52:43.217Z,925.55
2017-02-10T01:53:11.370Z,925.56
2017-02-10T01:53:39.612Z,925.55
2017-02-10T01:54:07.590Z,925.59
2017-02-10T01:54:35.760Z,925.47
2017-02-10T01:55:04.005Z,925.52
2017-02-10T01:55:32.266Z,925.46
2017-02-10T01:56:00.439Z,925.47
2017-02-10T01:56:28.563Z,925.52
2017-02-10T01:57:39.656Z,925.53
2017-02-10T01:58:07.810Z,925.62
2017-02-10T01:58:35.820Z,925.63
2017-02-10T01:59:03.784Z,925.65
2017-02-10T01:59:31.843Z,925.62
2017-02-10T02:00:00.010Z,925.6
2017-02-10T02:00:28.179Z,925.61
2017-02-10T02:00:56.336Z,925.66
2017-02-10T02:01:24.415Z,925.67
2017-02-10T02:01:52.686Z,925.65
2017-02-10T02:02:20.812Z,925.67
2017-02-10T02:03:31.995Z,925.73
2017-02-10T02:04:00.152Z,925.76
2017-02-10T02:04:28.253Z,925.81
2017-02-10T02:04:56.501Z,925.76
2017-02-10T02:05:24.561Z,925.79
2017-02-10T02:05:52.720Z,925.79
2017-02-10T02:06:20.982Z,925.78
2017-02-10T02:06:49.139Z,925.76
2017-02-10T02:07:17.314Z,925.81
2017-02-10T02:07:45.489Z,925.78
2017-02-10T02:08:13.620Z,925.78
2017-02-10T02:09:24.620Z,925.76
2017-02-10T02:09:52.771Z,925.8
2017-02-10T02:10:20.968Z,925.77
2017-02-10T02:10:49.123Z,925.75
2017-02-10T02:11:17.362Z,925.8
2017-02-10T02:11:45.529Z,925.78
2017-02-10T02:12:13.796Z,925.85
2017-02-10T02:12:41.951Z,925.8
2017-02-10T02:13:10.045Z,925.79
2017-02-10T02:13:38.311Z,925.84
2017-02-10T02:14:06.253Z,925.88
2017-02-10T02:15:17.434Z,925.89
2017-02-10T02:15:45.491Z,925.86
2017-02-10T02:16:13.590Z,925.84
2017-02-10T02:16:41.746Z,925.91
2017-02-10T02:17:09.990Z,925.91
2017-02-10T02:17:38.151Z,925.93
2017-02-10T02:18:06.141Z,925.97
2017-02-10T02:18:34.210Z,926.01
2017-02-10T02:19:02.479Z,925.93
2017-02-10T02:19:30.559Z,925.95
2017-02-10T02:19:58.595Z,925.95
2017-02-10T02:21:09.870Z,925.94
2017-02-10T02:21:38.028Z,926.06
2017-02-10T02:22:05.939Z,926
2017-02-10T02:22:33.999Z,925.95
2017-02-10T02:23:02.060Z,926.03
2017-02-10T02:23:30.134Z,926.03
2017-02-10T02:23:58.395Z,925.97
2017-02-10T02:24:26.463Z,925.92
2017-02-10T02:24:54.639Z,926.01
2017-02-10T02:25:22.811Z,925.97
2017-02-10T02:25:50.840Z,925.95
2017-02-10T02:27:02.022Z,925.96
2017-02-10T02:27:30.187Z,925.95
2017-02-10T02:27:58.196Z,925.99
2017-02-10T02:28:26.260Z,925.99
2017-02-10T02:28:54.504Z,926.02
2017-02-10T02:29:22.669Z,926.08
2017-02-10T02:29:50.754Z,925.94
2017-02-10T02:30:19.000Z,926.02
2017-02-10T02:30:47.175Z,926.04
2017-02-10T02:31:15.355Z,925.94
2017-02-10T02:31:43.481Z,925.94
2017-02-10T02:32:54.575Z,925.97
2017-02-10T02:33:22.825Z,925.94
2017-02-10T02:33:50.918Z,925.96
2017-02-10T02:34:18.899Z,925.92
2017-02-10T02:34:47.046Z,925.99
2017-02-10T02:35:15.113Z,925.98
2017-02-10T02:35:43.195Z,925.96
2017-02-10T02:36:11.353Z,925.96
2017-02-10T02:36:39.537Z,925.93
2017-02-10T02:37:07.804Z,925.92
2017-02-10T02:37:36.023Z,925.92
2017-02-10T02:38:47.113Z,925.93
2017-02-10T02:39:15.364Z,925.91
2017-02-10T02:39:43.373Z,925.91
2017-02-10T02:40:11.528Z,925.91
2017-02-10T02:40:39.779Z,925.9
2017-02-10T02:41:08.037Z,925.92
2017-02-10T02:41:36.214Z,925.95
2017-02-10T02:42:04.367Z,925.95
2017-02-10T02:42:32.452Z,925.89
2017-02-10T02:43:00.631Z,925.93
2017-02-10T02:43:28.758Z,925.94
2017-02-10T02:44:40.031Z,925.91
2017-02-10T02:45:08.095Z,925.9
2017-02-10T02:45:36.292Z,925.9
2017-02-10T02:46:04.534Z,925.87
2017-02-10T02:46:32.780Z,925.82
2017-02-10T02:47:01.033Z,925.85
2017-02-10T02:47:29.295Z,925.85
2017-02-10T02:47:57.457Z,925.87
2017-02-10T02:48:25.628Z,925.81
2017-02-10T02:48:53.805Z,925.78
2017-02-10T02:49:21.928Z,925.79
2017-02-10T02:50:33.058Z,925.82
2017-02-10T02:51:01.173Z,925.81
2017-02-10T02:51:29.374Z,925.83
2017-02-10T02:51:57.445Z,925.79
2017-02-10T02:52:25.684Z,925.8
2017-02-10T02:52:53.572Z,925.81
2017-02-10T02:53:21.839Z,925.77
2017-02-10T02:53:49.812Z,925.81
2017-02-10T02:54:18.084Z,925.82
2017-02-10T02:54:46.167Z,925.76
2017-02-10T02:55:14.198Z,925.79
2017-02-10T02:56:25.475Z,925.91
2017-02-10T02:56:53.633Z,925.88
2017-02-10T02:57:21.731Z,925.87
2017-02-10T02:57:49.697Z,925.93
2017-02-10T02:58:17.944Z,925.81
2017-02-10T02:58:46.107Z,925.98
2017-02-10T02:59:14.276Z,925.88
2017-02-10T02:59:42.430Z,925.79
2017-02-10T03:00:10.607Z,925.85
2017-02-10T03:00:38.869Z,925.79
2017-02-10T03:01:06.997Z,925.91
2017-02-10T03:02:18.182Z,925.85
2017-02-10T03:02:46.340Z,925.84
2017-02-10T03:03:14.351Z,925.81
2017-02-10T03:03:42.411Z,925.76
2017-02-10T03:04:10.559Z,925.73
2017-02-10T03:04:38.625Z,925.72
2017-02-10T03:05:06.798Z,925.77
2017-02-10T03:05:35.047Z,925.72
2017-02-10T03:06:03.227Z,925.71
2017-02-10T03:06:31.493Z,925.73
2017-02-10T03:06:59.526Z,925.73
2017-02-10T03:08:10.801Z,925.78
2017-02-10T03:08:39.050Z,925.75
2017-02-10T03:09:07.147Z,925.8
2017-02-10T03:09:35.302Z,925.76
2017-02-10T03:10:03.541Z,925.76
2017-02-10T03:10:31.602Z,925.78
2017-02-10T03:10:59.681Z,925.76
2017-02-10T03:11:27.928Z,925.75
2017-02-10T03:11:56.199Z,925.7
2017-02-10T03:12:24.372Z,925.72
2017-02-10T03:12:52.495Z,925.72
2017-02-10T03:14:03.674Z,925.71
2017-02-10T03:14:31.823Z,925.85
2017-02-10T03:14:59.828Z,925.71
2017-02-10T03:15:27.983Z,925.68
2017-02-10T03:15:56.136Z,925.82
2017-02-10T03:16:24.293Z,925.7
2017-02-10T03:16:52.560Z,925.72
2017-02-10T03:17:20.723Z,925.69
2017-02-10T03:17:48.992Z,925.62
2017-02-10T03:18:17.260Z,925.6
2017-02-10T03:18:45.386Z,925.62
2017-02-10T03:19:56.567Z,925.6
2017-02-10T03:20:24.632Z,925.54
2017-02-10T03:20:52.733Z,925.64
2017-02-10T03:21:20.700Z,925.54
2017-02-10T03:21:48.758Z,925.47
2017-02-10T03:22:16.827Z,925.44
2017-02-10T03:22:44.812Z,925.46
2017-02-10T03:23:12.873Z,925.51
2017-02-10T03:23:41.049Z,925.46
2017-02-10T03:24:09.315Z,925.46
2017-02-10T03:24:37.442Z,925.36
2017-02-10T03:25:48.530Z,925.41
2017-02-10T03:26:16.781Z,925.35
2017-02-10T03:26:44.788Z,925.4
2017-02-10T03:27:12.938Z,925.3
2017-02-10T03:27:41.087Z,925.31
2017-02-10T03:28:09.153Z,925.32
2017-02-10T03:28:37.234Z,925.37
2017-02-10T03:29:05.389Z,925.29
2017-02-10T03:29:33.558Z,925.29
2017-02-10T03:30:01.640Z,925.34
2017-02-10T03:30:29.861Z,925.23
2017-02-10T03:31:41.134Z,925.25
2017-02-10T03:32:09.292Z,925.26
2017-02-10T03:32:37.390Z,925.29
2017-02-10T03:33:05.547Z,925.31
2017-02-10T03:33:33.605Z,925.35
2017-02-10T03:34:01.856Z,925.39
2017-02-10T03:34:29.936Z,925.35
2017-02-10T03:34:57.815Z,925.35
2017-02-10T03:35:25.899Z,925.37
2017-02-10T03:35:53.982Z,925.39
2017-02-10T03:36:22.112Z,925.34
2017-02-10T03:37:33.297Z,925.39
2017-02-10T03:38:01.458Z,925.34
2017-02-10T03:38:29.469Z,925.35
2017-02-10T03:38:57.625Z,925.31
2017-02-10T03:39:25.682Z,925.31
2017-02-10T03:39:53.845Z,925.46
2017-02-10T03:40:22.013Z,925.33
2017-02-10T03:40:49.989Z,925.31
2017-02-10T03:41:18.164Z,925.3
2017-02-10T03:41:46.249Z,925.28
2017-02-10T03:42:14.378Z,925.29
2017-02-10T03:43:25.468Z,925.31
2017-02-10T03:43:53.569Z,925.28
2017-02-10T03:44:21.631Z,925.24
2017-02-10T03:44:49.877Z,925.21
2017-02-10T03:45:18.027Z,925.23
2017-02-10T03:45:46.183Z,925.21
2017-02-10T03:46:14.353Z,925.2
2017-02-10T03:46:42.502Z,925.16
2017-02-10T03:47:10.675Z,925.15
2017-02-10T03:47:38.764Z,925.12
2017-02-10T03:48:06.977Z,925.12
2017-02-10T03:49:18.157Z,925.06
2017-02-10T03:49:46.318Z,925.09
2017-02-10T03:50:14.420Z,925.1
2017-02-10T03:50:42.484Z,925.04
2017-02-10T03:51:10.636Z,925.02
2017-02-10T03:51:38.704Z,925.06
2017-02-10T03:52:06.784Z,925.02
2017-02-10T03:52:35.033Z,925.03
2017-02-10T03:53:03.300Z,925.06
2017-02-10T03:53:31.377Z,925.05
2017-02-10T03:53:59.413Z,925.04
2017-02-10T03:55:10.594Z,925.03
2017-02-10T03:55:38.572Z,925.07
2017-02-10T03:56:06.761Z,925.08
2017-02-10T03:56:35.010Z,925.08
2017-02-10T03:57:03.169Z,925.1
2017-02-10T03:57:31.423Z,925.05
2017-02-10T03:57:59.690Z,925.07
2017-02-10T03:58:27.933Z,925.06
2017-02-10T03:58:56.206Z,925.02
2017-02-10T03:59:24.474Z,925.05
2017-02-10T03:59:52.605Z,925.04
2017-02-10T04:01:03.697Z,925.07
2017-02-10T04:01:31.849Z,925.05
2017-02-10T04:01:59.865Z,925.04
2017-02-10T04:02:28.008Z,925.04
2017-02-10T04:02:56.256Z,925.01
2017-02-10T04:03:24.239Z,925.09
2017-02-10T04:03:52.506Z,925.12
2017-02-10T04:04:20.661Z,925.05
2017-02-10T04:04:48.850Z,925.02
2017-02-10T04:05:17.112Z,925.07
2017-02-10T04:05:45.048Z,925.06
2017-02-10T04:06:56.323Z,925.02
2017-02-10T04:07:24.383Z,925.05
2017-02-10T04:07:52.480Z,925
2017-02-10T04:08:20.542Z,925.03
2017-02-10T04:08:48.503Z,925.01
2017-02-10T04:09:16.754Z,924.97
2017-02-10T04:09:44.832Z,924.96
2017-02-10T04:10:13.084Z,924.92
2017-02-10T04:10:41.163Z,924.92
2017-02-10T04:11:09.338Z,924.93
2017-02-10T04:11:37.465Z,924.9
2017-02-10T04:12:48.548Z,924.9
2017-02-10T04:13:16.614Z,924.98
2017-02-10T04:13:44.715Z,924.87
2017-02-10T04:14:12.963Z,924.94
2017-02-10T04:14:41.208Z,924.84
2017-02-10T04:15:09.470Z,924.93
2017-02-10T04:15:37.729Z,924.86
2017-02-10T04:16:05.789Z,924.93
2017-02-10T04:16:34.062Z,924.87
2017-02-10T04:17:02.146Z,924.92
2017-02-10T04:17:30.183Z,924.99
2017-02-10T04:18:41.461Z,924.88
2017-02-10T04:19:09.529Z,924.8
2017-02-10T04:19:37.728Z,924.81
2017-02-10T04:20:05.973Z,924.84
2017-02-10T04:20:34.219Z,924.82
2017-02-10T04:21:02.475Z,924.78
2017-02-10T04:21:30.553Z,924.73
2017-02-10T04:21:58.801Z,924.82
2017-02-10T04:22:26.976Z,924.76
2017-02-10T04:22:55.249Z,924.84
2017-02-10T04:23:23.381Z,924.83
2017-02-10T04:24:34.563Z,924.78
2017-02-10T04:25:02.812Z,924.75
2017-02-10T04:25:30.921Z,924.74
2017-02-10T04:25:59.020Z,924.68
2017-02-10T04:26:27.169Z,924.72
2017-02-10T04:26:55.427Z,924.79
2017-02-10T04:27:23.600Z,924.75
2017-02-10T04:27:51.757Z,924.7
2017-02-10T04:28:20.022Z,924.71
2017-02-10T04:28:48.290Z,924.66
2017-02-10T04:29:16.508Z,924.64
2017-02-10T04:30:27.596Z,924.7
2017-02-10T04:30:55.662Z,924.65
2017-02-10T04:31:23.857Z,924.62
2017-02-10T04:31:52.012Z,924.65
2017-02-10T04:32:20.160Z,924.78
2017-02-10T04:32:48.320Z,924.64
2017-02-10T04:33:16.493Z,924.65
2017-02-10T04:33:44.672Z,924.79
2017-02-10T04:34:12.760Z,924.65
2017-02-10T04:34:40.934Z,924.66
2017-02-10T04:35:09.059Z,924.68
2017-02-10T04:36:20.238Z,924.69
2017-02-10T04:36:48.394Z,924.74
2017-02-10T04:37:16.498Z,924.78
2017-02-10T04:37:44.653Z,924.74
2017-02-10T04:38:12.717Z,924.71
2017-02-10T04:38:40.875Z,924.76
2017-02-10T04:39:09.047Z,924.68
2017-02-10T04:39:37.200Z,924.71
2017-02-10T04:40:05.469Z,924.68
2017-02-10T04:40:33.554Z,924.69
2017-02-10T04:41:01.585Z,924.71
2017-02-10T04:42:12.676Z,924.7
2017-02-10T04:42:40.835Z,924.77
2017-02-10T04:43:08.944Z,924.73
2017-02-10T04:43:37.006Z,924.71
2017-02-10T04:44:05.158Z,924.65
2017-02-10T04:44:33.323Z,924.72
2017-02-10T04:45:01.497Z,924.69
2017-02-10T04:45:29.561Z,924.69
2017-02-10T04:45:57.645Z,924.72
2017-02-10T04:46:25.822Z,924.72
2017-02-10T04:46:53.854Z,924.71
2017-02-10T04:48:04.853Z,924.62
2017-02-10T04:48:32.918Z,924.64
2017-02-10T04:49:01.021Z,924.63
2017-02-10T04:49:29.177Z,924.68
2017-02-10T04:49:57.333Z,924.72
2017-02-10T04:50:25.504Z,924.75
2017-02-10T04:50:53.674Z,924.73
2017-02-10T04:51:21.734Z,924.76
2017-02-10T04:51:49.913Z,924.65
2017-02-10T04:52:17.815Z,924.72
2017-02-10T04:52:45.941Z,924.65
2017-02-10T04:53:57.215Z,924.71
2017-02-10T04:54:25.370Z,924.65
2017-02-10T04:54:53.567Z,924.74
2017-02-10T04:55:21.718Z,924.67
2017-02-10T04:55:49.869Z,924.66
2017-02-10T04:56:18.125Z,924.6
2017-02-10T04:56:46.387Z,924.61
2017-02-10T04:57:14.543Z,924.7
2017-02-10T04:57:42.814Z,924.65
2017-02-10T04:58:11.080Z,924.65
2017-02-10T04:58:39.115Z,924.63
2017-02-10T04:59:50.300Z,924.64
2017-02-10T05:00:18.359Z,924.54
2017-02-10T05:00:46.367Z,924.57
2017-02-10T05:01:14.514Z,924.55
2017-02-10T05:01:42.570Z,924.58
2017-02-10T05:02:10.640Z,924.6
2017-02-10T05:02:38.809Z,924.59
2017-02-10T05:03:07.063Z,924.63
2017-02-10T05:03:35.321Z,924.7
2017-02-10T05:04:03.590Z,924.59
2017-02-10T05:04:31.806Z,924.7
2017-02-10T05:05:43.079Z,924.59
2017-02-10T05:06:11.329Z,924.61
2017-02-10T05:06:39.340Z,924.62
2017-02-10T05:07:07.428Z,924.6
2017-02-10T05:07:35.639Z,924.64
2017-02-10T05:08:03.891Z,924.63
2017-02-10T05:08:31.966Z,924.62
2017-02-10T05:09:00.029Z,924.66
2017-02-10T05:09:28.108Z,924.67
2017-02-10T05:09:56.009Z,924.64
2017-02-10T05:10:23.946Z,924.66
2017-02-10T05:11:35.036Z,924.61
2017-02-10T05:12:03.191Z,924.62
2017-02-10T05:12:31.297Z,924.71
2017-02-10T05:12:59.355Z,924.74
2017-02-10T05:13:27.598Z,924.66
2017-02-10T05:13:55.852Z,924.65
2017-02-10T05:14:24.017Z,924.71
2017-02-10T05:14:52.168Z,924.72
2017-02-10T05:15:20.346Z,924.61
2017-02-10T05:15:48.610Z,924.65
2017-02-10T05:16:16.739Z,924.62
2017-02-10T05:17:27.920Z,924.64
2017-02-10T05:17:56.170Z,924.59
2017-02-10T05:18:24.364Z,924.65
2017-02-10T05:18:52.442Z,924.59
2017-02-10T05:19:20.498Z,924.58
2017-02-10T05:19:48.657Z,924.6
2017-02-10T05:20:16.649Z,924.62
2017-02-10T05:20:44.704Z,924.6
2017-02-10T05:21:12.788Z,924.68
2017-02-10T05:21:41.056Z,924.61
2017-02-10T05:22:09.299Z,924.67
2017-02-10T05:23:20.359Z,924.61
2017-02-10T05:23:48.424Z,924.68
2017-02-10T05:24:16.339Z,924.7
2017-02-10T05:24:44.492Z,924.65
2017-02-10T05:25:12.547Z,924.68
2017-02-10T05:25:40.712Z,924.65
2017-02-10T05:26:08.877Z,924.72
2017-02-10T05:26:37.035Z,924.62
2017-02-10T05:27:05.205Z,924.61
2017-02-10T05:27:33.475Z,924.71
2017-02-10T05:28:01.689Z,924.73
2017-02-10T05:29:12.961Z,924.71
2017-02-10T05:29:41.115Z,924.69
2017-02-10T05:30:08.960Z,924.75
2017-02-10T05:30:37.112Z,924.67
2017-02-10T05:31:05.358Z,924.6
2017-02-10T05:31:33.421Z,924.73
2017-02-10T05:32:01.493Z,924.7
2017-02-10T05:32:29.643Z,924.73
2017-02-10T05:32:57.630Z,924.71
2017-02-10T05:33:25.900Z,924.73
2017-02-10T05:33:54.026Z,924.74
2017-02-10T05:35:04.930Z,924.72
2017-02-10T05:35:32.971Z,924.71
2017-02-10T05:36:01.157Z,924.72
2017-02-10T05:36:29.306Z,924.69
2017-02-10T05:36:57.548Z,924.65
2017-02-10T05:37:25.702Z,924.67
2017-02-10T05:37:53.967Z,924.65
2017-02-10T05:38:22.029Z,924.63
2017-02-10T05:38:50.203Z,924.61
2017-02-10T05:39:18.472Z,924.63
2017-02-10T05:39:46.590Z,924.64
2017-02-10T05:40:57.864Z,924.58
2017-02-10T05:41:26.021Z,924.58
2017-02-10T05:41:54.118Z,924.59
2017-02-10T05:42:22.366Z,924.57
2017-02-10T05:42:50.524Z,924.58
2017-02-10T05:43:18.780Z,924.61
2017-02-10T05:43:46.855Z,924.56
2017-02-10T05:44:15.012Z,924.54
2017-02-10T05:44:43.190Z,924.57
2017-02-10T05:45:11.453Z,924.54
2017-02-10T05:45:39.673Z,924.54
2017-02-10T05:46:50.669Z,924.51
2017-02-10T05:47:18.816Z,924.47
2017-02-10T05:47:46.917Z,924.49
2017-02-10T05:48:14.971Z,924.47
2017-02-10T05:48:43.122Z,924.45
2017-02-10T05:49:11.189Z,924.42
2017-02-10T05:49:39.452Z,924.44
2017-02-10T05:50:07.512Z,924.42
2017-02-10T05:50:35.769Z,924.37
2017-02-10T05:51:03.962Z,924.39
2017-02-10T05:51:32.052Z,924.36
2017-02-10T05:52:43.140Z,924.44
2017-02-10T05:53:11.393Z,924.44
2017-02-10T05:53:39.496Z,924.36
2017-02-10T05:54:07.462Z,924.4
2017-02-10T05:54:35.525Z,924.44
2017-02-10T05:55:03.505Z,924.4
2017-02-10T05:55:31.674Z,924.41
2017-02-10T05:55:59.825Z,924.36
2017-02-10T05:56:28.004Z,924.36
2017-02-10T05:56:56.297Z,924.36
2017-02-10T05:57:24.488Z,924.39
2017-02-10T05:58:35.763Z,924.38
2017-02-10T05:59:03.923Z,924.41
2017-02-10T05:59:32.118Z,924.42
2017-02-10T06:00:00.268Z,924.44
2017-02-10T06:00:28.336Z,924.47
2017-02-10T06:00:56.502Z,924.48
2017-02-10T06:01:24.763Z,924.46
2017-02-10T06:01:52.823Z,924.48
2017-02-10T06:02:21.084Z,924.5
2017-02-10T06:02:49.171Z,924.57
2017-02-10T06:03:17.295Z,924.55
2017-02-10T06:04:28.482Z,924.58
2017-02-10T06:04:56.644Z,924.49
2017-02-10T06:05:24.751Z,924.47
2017-02-10T06:05:52.994Z,924.5
2017-02-10T06:06:21.236Z,924.5
2017-02-10T06:06:49.398Z,924.41
2017-02-10T06:07:17.568Z,924.44
2017-02-10T06:07:45.815Z,924.43
2017-02-10T06:08:14.085Z,924.41
2017-02-10T06:08:42.355Z,924.46
2017-02-10T06:09:10.386Z,924.42
2017-02-10T06:10:21.660Z,924.44
2017-02-10T06:10:49.722Z,924.46
2017-02-10T06:11:17.820Z,924.48
2017-02-10T06:11:45.978Z,924.52
2017-02-10T06:12:14.223Z,924.48
2017-02-10T06:12:42.477Z,924.48
2017-02-10T06:13:10.651Z,924.54
2017-02-10T06:13:38.797Z,924.49
2017-02-10T06:14:06.973Z,924.5
2017-02-10T06:14:35.061Z,924.5
2017-02-10T06:15:03.184Z,924.51
2017-02-10T06:16:14.456Z,924.48
2017-02-10T06:16:42.706Z,924.5
2017-02-10T06:17:10.722Z,924.51
2017-02-10T06:17:38.781Z,924.48
2017-02-10T06:18:07.033Z,924.52
2017-02-10T06:18:35.101Z,924.5
2017-02-10T06:19:03.270Z,924.51
2017-02-10T06:19:31.456Z,924.49
2017-02-10T06:19:59.682Z,924.48
2017-02-10T06:20:27.954Z,924.44
2017-02-10T06:20:56.078Z,924.47
2017-02-10T06:22:07.263Z,924.55
2017-02-10T06:22:35.424Z,924.43
2017-02-10T06:23:03.624Z,924.46
2017-02-10T06:23:31.872Z,924.48
2017-02-10T06:24:00.023Z,924.44
2017-02-10T06:24:28.278Z,924.45
2017-02-10T06:24:56.542Z,924.49
2017-02-10T06:25:24.782Z,924.52
2017-02-10T06:25:52.958Z,924.5
2017-02-10T06:26:21.136Z,924.46
2017-02-10T06:26:49.174Z,924.45
2017-02-10T06:28:00.259Z,924.42
2017-02-10T06:28:28.325Z,924.43
2017-02-10T06:28:56.517Z,924.38
2017-02-10T06:29:24.674Z,924.43
2017-02-10T06:29:52.826Z,924.41
2017-02-10T06:30:21.084Z,924.44
2017-02-10T06:30:49.346Z,924.39
2017-02-10T06:31:18.031Z,924.4
2017-02-10T06:31:46.201Z,924.37
2017-02-10T06:32:14.471Z,924.39
2017-02-10T06:32:42.594Z,924.4
2017-02-10T06:33:53.774Z,924.39
2017-02-10T06:34:21.928Z,924.35
2017-02-10T06:34:50.026Z,924.45
2017-02-10T06:35:18.271Z,924.46
2017-02-10T06:35:46.517Z,924.42
2017-02-10T06:36:14.776Z,924.48
2017-02-10T06:36:42.942Z,924.47
2017-02-10T06:37:11.094Z,924.45
2017-02-10T06:37:39.356Z,924.47
2017-02-10T06:38:07.443Z,924.49
2017-02-10T06:38:35.663Z,924.48
2017-02-10T06:39:46.845Z,924.46
2017-02-10T06:40:14.820Z,924.4
2017-02-10T06:40:43.017Z,924.49
2017-02-10T06:41:11.171Z,924.51